KAFW

Fort Worth Alliance Airport

Fort Worth, Texas, USA
METAR KAFW 222153Z 32011KT 10SM BKN055 18/07 A3003 RMK AO2 SLP165 T01830067
Observed Flight Rules
Apr-22 @ 21:53 UTC (9 minutes ago) Visual Flight Rules
Wind Visibility Clouds
320° at 11 knots 10 miles
  • Broken at 5,500' AGL
Temperatures Readings
Current 18°C / 64°F
Dewpoint 7°C / 45°F
Humidity 49%
Altimeter 30.03" Hg
Pressure 1016.5 hPa
Elevation 233
METAR KAFW 222153Z 32011KT 10SM BKN055 18/07 A3003 RMK AO2 SLP165 T01830067
Observed Flight Rules
Apr-22 @ 21:53 UTC
(9 minutes ago)
VFR
Wind Visibility
320° at 11 knots 10 miles
Clouds
  • Broken at 5,500' AGL
Temperature Dewpoint
18°C / 64°F 7°C / 45°F
Humidity Altimeter Pressure
49% 30.03" Hg 1016.5 hPa